sensor_id;sensor_type;location;lat;lon;timestamp;pressure;altitude;pressure_sealevel;temperature;humidity
23589;BME280;11972;48.078;11.876;2023-08-07T00:03:34;92120.41;;;11.89;100.00
23589;BME280;11972;48.078;11.876;2023-08-07T00:07:35;92102.69;;;11.85;100.00
23589;BME280;11972;48.078;11.876;2023-08-07T00:11:36;92094.25;;;11.83;100.00
23589;BME280;11972;48.078;11.876;2023-08-07T00:15:39;92109.56;;;11.86;100.00
23589;BME280;11972;48.078;11.876;2023-08-07T00:19:39;92095.03;;;11.83;100.00
23589;BME280;11972;48.078;11.876;2023-08-07T00:23:40;92089.75;;;11.83;100.00
23589;BME280;11972;48.078;11.876;2023-08-07T00:28:02;92118.78;;;11.88;100.00
23589;BME280;11972;48.078;11.876;2023-08-07T00:32:03;92111.66;;;11.89;100.00
23589;BME280;11972;48.078;11.876;2023-08-07T00:36:04;92020.84;;;11.64;100.00
23589;BME280;11972;48.078;11.876;2023-08-07T00:40:05;91939.31;;;11.42;100.00
23589;BME280;11972;48.078;11.876;2023-08-07T00:44:05;91788.50;;;11.05;100.00
23589;BME280;11972;48.078;11.876;2023-08-07T00:48:06;91679.97;;;10.77;100.00
23589;BME280;11972;48.078;11.876;2023-08-07T00:52:07;91584.41;;;10.51;100.00
23589;BME280;11972;48.078;11.876;2023-08-07T00:56:07;91514.69;;;10.33;100.00
23589;BME280;11972;48.078;11.876;2023-08-07T01:00:08;91467.81;;;10.20;100.00
23589;BME280;11972;48.078;11.876;2023-08-07T01:04:09;91441.81;;;10.13;100.00
23589;BME280;11972;48.078;11.876;2023-08-07T01:08:09;91392.88;;;10.02;100.00
23589;BME280;11972;48.078;11.876;2023-08-07T01:12:15;91377.91;;;9.98;100.00
23589;BME280;11972;48.078;11.876;2023-08-07T01:16:28;91354.50;;;9.91;100.00
23589;BME280;11972;48.078;11.876;2023-08-07T01:20:29;91315.88;;;9.81;100.00
23589;BME280;11972;48.078;11.876;2023-08-07T01:24:30;91276.50;;;9.71;100.00
23589;BME280;11972;48.078;11.876;2023-08-07T01:28:38;91238.16;;;9.60;100.00
23589;BME280;11972;48.078;11.876;2023-08-07T01:36:57;91195.06;;;9.51;100.00
23589;BME280;11972;48.078;11.876;2023-08-07T01:41:00;91190.34;;;9.48;100.00
23589;BME280;11972;48.078;11.876;2023-08-07T01:45:01;91183.00;;;9.44;100.00
23589;BME280;11972;48.078;11.876;2023-08-07T01:49:02;91169.34;;;9.42;100.00
23589;BME280;11972;48.078;11.876;2023-08-07T01:53:02;91172.25;;;9.41;100.00
23589;BME280;11972;48.078;11.876;2023-08-07T01:57:03;91174.63;;;9.42;100.00
23589;BME280;11972;48.078;11.876;2023-08-07T02:01:03;91172.25;;;9.41;100.00
23589;BME280;11972;48.078;11.876;2023-08-07T02:05:04;91173.31;;;9.40;100.00
23589;BME280;11972;48.078;11.876;2023-08-07T02:09:04;91156.22;;;9.37;100.00
23589;BME280;11972;48.078;11.876;2023-08-07T02:13:05;91150.72;;;9.34;100.00
23589;BME280;11972;48.078;11.876;2023-08-07T02:17:05;91132.38;;;9.29;100.00
23589;BME280;11972;48.078;11.876;2023-08-07T02:21:05;91120.56;;;9.26;100.00
23589;BME280;11972;48.078;11.876;2023-08-07T02:25:06;91110.31;;;9.25;100.00
23589;BME280;11972;48.078;11.876;2023-08-07T02:29:06;91116.63;;;9.24;100.00
23589;BME280;11972;48.078;11.876;2023-08-07T02:33:09;91099.53;;;9.21;100.00
23589;BME280;11972;48.078;11.876;2023-08-07T02:37:09;91092.72;;;9.20;100.00
23589;BME280;11972;48.078;11.876;2023-08-07T02:41:09;91104.81;;;9.21;100.00
23589;BME280;11972;48.078;11.876;2023-08-07T02:45:10;91116.94;;;9.22;100.00
23589;BME280;11972;48.078;11.876;2023-08-07T02:49:10;91113.78;;;9.20;100.00
23589;BME280;11972;48.078;11.876;2023-08-07T02:53:11;91115.34;;;9.21;100.00
23589;BME280;11972;48.078;11.876;2023-08-07T02:57:11;91116.94;;;9.22;100.00
23589;BME280;11972;48.078;11.876;2023-08-07T03:01:11;91112.72;;;9.21;100.00
23589;BME280;11972;48.078;11.876;2023-08-07T03:05:12;91113.78;;;9.20;100.00
23589;BME280;11972;48.078;11.876;2023-08-07T03:09:12;91106.94;;;9.19;100.00
23589;BME280;11972;48.078;11.876;2023-08-07T03:13:13;91120.59;;;9.21;100.00
23589;BME280;11972;48.078;11.876;2023-08-07T03:17:13;91115.34;;;9.21;100.00
23589;BME280;11972;48.078;11.876;2023-08-07T03:21:13;91106.94;;;9.19;100.00
23589;BME280;11972;48.078;11.876;2023-08-07T03:25:14;91127.47;;;9.22;100.00
23589;BME280;11972;48.078;11.876;2023-08-07T03:29:14;91128.25;;;9.23;100.00
23589;BME280;11972;48.078;11.876;2023-08-07T03:33:14;91124.81;;;9.22;100.00
23589;BME280;11972;48.078;11.876;2023-08-07T03:37:15;91132.72;;;9.22;100.00
23589;BME280;11972;48.078;11.876;2023-08-07T03:41:15;91123.75;;;9.23;100.00
23589;BME280;11972;48.078;11.876;2023-08-07T03:45:15;91135.06;;;9.24;100.00
23589;BME280;11972;48.078;11.876;2023-08-07T03:49:16;91135.84;;;9.24;100.00
23589;BME280;11972;48.078;11.876;2023-08-07T03:53:17;91139.53;;;9.23;100.00
23589;BME280;11972;48.078;11.876;2023-08-07T03:57:17;91130.34;;;9.20;100.00
23589;BME280;11972;48.078;11.876;2023-08-07T04:01:18;91138.75;;;9.23;100.00
23589;BME280;11972;48.078;11.876;2023-08-07T04:05:18;91141.09;;;9.24;100.00
23589;BME280;11972;48.078;11.876;2023-08-07T04:09:19;91139.53;;;9.23;100.00
23589;BME280;11972;48.078;11.876;2023-08-07T04:13:19;91145.59;;;9.24;100.00
23589;BME280;11972;48.078;11.876;2023-08-07T04:17:19;91135.84;;;9.24;100.00
23589;BME280;11972;48.078;11.876;2023-08-07T04:21:19;91155.56;;;9.27;100.00
23589;BME280;11972;48.078;11.876;2023-08-07T04:25:20;91178.41;;;9.31;100.00
23589;BME280;11972;48.078;11.876;2023-08-07T04:29:20;91179.97;;;9.32;100.00
23589;BME280;11972;48.078;11.876;2023-08-07T04:33:21;91177.06;;;9.34;100.00
23589;BME280;11972;48.078;11.876;2023-08-07T04:37:21;91202.56;;;9.38;100.00
23589;BME280;11972;48.078;11.876;2023-08-07T04:41:22;91198.34;;;9.37;100.00
23589;BME280;11972;48.078;11.876;2023-08-07T04:45:23;91210.97;;;9.40;100.00
23589;BME280;11972;48.078;11.876;2023-08-07T04:49:23;91220.41;;;9.41;100.00
23589;BME280;11972;48.078;11.876;2023-08-07T04:53:24;91231.19;;;9.45;100.00
23589;BME280;11972;48.078;11.876;2023-08-07T04:57:24;91255.63;;;9.51;100.00
23589;BME280;11972;48.078;11.876;2023-08-07T05:01:24;91283.47;;;9.57;100.00
23589;BME280;11972;48.078;11.876;2023-08-07T05:05:24;91323.69;;;9.67;100.00
23589;BME280;11972;48.078;11.876;2023-08-07T05:09:25;91352.84;;;9.76;100.00
23589;BME280;11972;48.078;11.876;2023-08-07T05:13:25;91364.38;;;9.80;100.00
23589;BME280;11972;48.078;11.876;2023-08-07T05:17:26;91389.59;;;9.86;100.00
23589;BME280;11972;48.078;11.876;2023-08-07T05:21:26;91404.88;;;9.89;100.00
23589;BME280;11972;48.078;11.876;2023-08-07T05:25:26;91411.69;;;9.90;100.00
23589;BME280;11972;48.078;11.876;2023-08-07T05:29:27;91429.84;;;9.97;100.00
23589;BME280;11972;48.078;11.876;2023-08-07T05:33:27;91487.47;;;10.09;100.00
23589;BME280;11972;48.078;11.876;2023-08-07T05:37:27;91634.28;;;10.48;100.00
23589;BME280;11972;48.078;11.876;2023-08-07T05:41:29;91766.22;;;10.82;100.00
23589;BME280;11972;48.078;11.876;2023-08-07T05:45:30;91830.28;;;10.98;100.00
23589;BME280;11972;48.078;11.876;2023-08-07T05:49:30;91864.53;;;11.08;100.00
23589;BME280;11972;48.078;11.876;2023-08-07T05:53:31;91886.69;;;11.12;100.00
23589;BME280;11972;48.078;11.876;2023-08-07T05:57:31;91899.31;;;11.15;100.00
23589;BME280;11972;48.078;11.876;2023-08-07T06:01:32;91907.50;;;11.18;100.00
23589;BME280;11972;48.078;11.876;2023-08-07T06:05:32;91933.09;;;11.23;100.00
23589;BME280;11972;48.078;11.876;2023-08-07T06:09:32;91939.41;;;11.27;100.00
23589;BME280;11972;48.078;11.876;2023-08-07T06:13:34;91948.94;;;11.28;100.00
23589;BME280;11972;48.078;11.876;2023-08-07T06:17:35;91961.56;;;11.31;100.00
23589;BME280;11972;48.078;11.876;2023-08-07T06:21:35;91984.25;;;11.37;100.00
23589;BME280;11972;48.078;11.876;2023-08-07T06:25:36;92022.25;;;11.47;100.00
23589;BME280;11972;48.078;11.876;2023-08-07T06:29:36;92030.72;;;11.49;100.00
23589;BME280;11972;48.078;11.876;2023-08-07T06:33:37;92066.34;;;11.56;100.00
23589;BME280;11972;48.078;11.876;2023-08-07T06:37:37;92089.81;;;11.63;100.00
23589;BME280;11972;48.078;11.876;2023-08-07T06:41:37;92109.09;;;11.68;100.00
23589;BME280;11972;48.078;11.876;2023-08-07T06:45:38;92172.25;;;11.85;100.00
23589;BME280;11972;48.078;11.876;2023-08-07T06:49:38;92215.03;;;11.98;100.00
23589;BME280;11972;48.078;11.876;2023-08-07T06:53:39;92284.50;;;12.13;100.00
23589;BME280;11972;48.078;11.876;2023-08-07T06:57:39;92359.59;;;12.33;100.00
23589;BME280;11972;48.078;11.876;2023-08-07T07:01:40;92421.19;;;12.49;100.00
23589;BME280;11972;48.078;11.876;2023-08-07T07:05:40;92487.88;;;12.66;100.00
23589;BME280;11972;48.078;11.876;2023-08-07T07:09:43;92564.09;;;12.84;100.00
23589;BME280;11972;48.078;11.876;2023-08-07T07:13:43;92621.53;;;12.99;100.00
23589;BME280;11972;48.078;11.876;2023-08-07T07:17:43;92668.94;;;13.11;100.00
23589;BME280;11972;48.078;11.876;2023-08-07T07:21:44;92750.03;;;13.32;100.00
23589;BME280;11972;48.078;11.876;2023-08-07T07:25:44;92833.28;;;13.52;100.00
23589;BME280;11972;48.078;11.876;2023-08-07T07:29:44;92865.38;;;13.60;100.00
23589;BME280;11972;48.078;11.876;2023-08-07T07:33:45;92920.28;;;13.75;100.00
23589;BME280;11972;48.078;11.876;2023-08-07T07:37:46;93041.84;;;14.04;100.00
23589;BME280;11972;48.078;11.876;2023-08-07T07:41:46;93062.53;;;14.12;100.00
23589;BME280;11972;48.078;11.876;2023-08-07T07:45:47;93135.84;;;14.28;100.00
23589;BME280;11972;48.078;11.876;2023-08-07T07:49:47;93147.53;;;14.32;100.00
23589;BME280;11972;48.078;11.876;2023-08-07T07:53:47;93199.56;;;14.44;100.00
23589;BME280;11972;48.078;11.876;2023-08-07T07:57:48;93192.66;;;14.43;100.00
23589;BME280;11972;48.078;11.876;2023-08-07T08:01:48;93244.28;;;14.57;100.00
23589;BME280;11972;48.078;11.876;2023-08-07T08:05:50;93301.16;;;14.71;100.00
23589;BME280;11972;48.078;11.876;2023-08-07T08:09:50;93196.66;;;14.45;100.00
23589;BME280;11972;48.078;11.876;2023-08-07T08:13:51;93123.06;;;14.25;100.00
23589;BME280;11972;48.078;11.876;2023-08-07T08:17:51;93124.66;;;14.26;100.00
23589;BME280;11972;48.078;11.876;2023-08-07T08:21:51;93076.88;;;14.16;100.00
23589;BME280;11972;48.078;11.876;2023-08-07T08:25:52;93144.88;;;14.32;100.00
23589;BME280;11972;48.078;11.876;2023-08-07T08:29:52;93118.56;;;14.26;100.00
23589;BME280;11972;48.078;11.876;2023-08-07T08:33:52;93110.88;;;14.24;100.00
23589;BME280;11972;48.078;11.876;2023-08-07T08:37:53;93059.88;;;14.12;100.00
23589;BME280;11972;48.078;11.876;2023-08-07T08:41:53;92987.16;;;13.93;100.00
23589;BME280;11972;48.078;11.876;2023-08-07T08:45:54;92968.56;;;13.87;100.00
23589;BME280;11972;48.078;11.876;2023-08-07T08:50:01;92951.59;;;13.83;100.00
23589;BME280;11972;48.078;11.876;2023-08-07T08:54:03;92987.16;;;13.93;100.00
23589;BME280;11972;48.078;11.876;2023-08-07T08:58:03;93044.47;;;14.09;100.00
23589;BME280;11972;48.078;11.876;2023-08-07T09:02:04;93106.59;;;14.23;100.00
23589;BME280;11972;48.078;11.876;2023-08-07T09:06:06;93228.56;;;14.55;100.00
23589;BME280;11972;48.078;11.876;2023-08-07T09:10:08;93262.34;;;14.65;100.00
23589;BME280;11972;48.078;11.876;2023-08-07T09:14:11;93378.81;;;14.94;100.00
23589;BME280;11972;48.078;11.876;2023-08-07T09:18:15;93457.03;;;15.13;100.00
23589;BME280;11972;48.078;11.876;2023-08-07T09:22:16;93574.41;;;15.42;100.00
23589;BME280;11972;48.078;11.876;2023-08-07T09:26:21;93601.88;;;15.48;100.00
23589;BME280;11972;48.078;11.876;2023-08-07T09:30:29;93663.09;;;15.63;100.00
23589;BME280;11972;48.078;11.876;2023-08-07T09:34:30;93747.91;;;15.86;100.00
23589;BME280;11972;48.078;11.876;2023-08-07T09:38:30;93880.19;;;16.18;100.00
23589;BME280;11972;48.078;11.876;2023-08-07T09:42:35;93999.72;;;16.47;100.00
23589;BME280;11972;48.078;11.876;2023-08-07T09:46:42;93996.25;;;16.46;100.00
23589;BME280;11972;48.078;11.876;2023-08-07T09:50:45;93715.38;;;15.79;100.00
23589;BME280;11972;48.078;11.876;2023-08-07T09:54:46;93731.91;;;15.81;100.00
23589;BME280;11972;48.078;11.876;2023-08-07T09:58:47;93833.78;;;16.09;100.00
23589;BME280;11972;48.078;11.876;2023-08-07T10:02:49;93981.59;;;16.44;100.00
23589;BME280;11972;48.078;11.876;2023-08-07T10:06:50;94145.59;;;16.83;100.00
23589;BME280;11972;48.078;11.876;2023-08-07T10:10:51;94249.81;;;17.09;100.00
23589;BME280;11972;48.078;11.876;2023-08-07T10:14:53;94342.63;;;17.34;100.00
23589;BME280;11972;48.078;11.876;2023-08-07T10:18:54;94437.59;;;17.57;100.00
23589;BME280;11972;48.078;11.876;2023-08-07T10:23:06;94437.59;;;17.57;100.00
23589;BME280;11972;48.078;11.876;2023-08-07T10:27:07;94573.06;;;17.89;100.00
23589;BME280;11972;48.078;11.876;2023-08-07T10:31:09;94766.00;;;18.34;100.00
23589;BME280;11972;48.078;11.876;2023-08-07T10:35:31;94736.78;;;18.28;100.00
23589;BME280;11972;48.078;11.876;2023-08-07T10:39:31;94648.09;;;18.09;100.00
23589;BME280;11972;48.078;11.876;2023-08-07T10:43:40;94486.88;;;17.71;100.00
23589;BME280;11972;48.078;11.876;2023-08-07T10:47:40;94486.06;;;17.71;100.00
23589;BME280;11972;48.078;11.876;2023-08-07T10:51:41;94639.53;;;18.07;100.00
23589;BME280;11972;48.078;11.876;2023-08-07T10:55:45;94633.41;;;18.06;100.00
23589;BME280;11972;48.078;11.876;2023-08-07T11:04:05;94579.53;;;17.93;100.00
23589;BME280;11972;48.078;11.876;2023-08-07T11:08:06;94466.00;;;17.68;100.00
23589;BME280;11972;48.078;11.876;2023-08-07T11:12:06;94631.53;;;18.07;100.00
23589;BME280;11972;48.078;11.876;2023-08-07T11:16:07;94678.16;;;18.21;100.00
23589;BME280;11972;48.078;11.876;2023-08-07T11:20:08;94793.41;;;18.47;100.00
23589;BME280;11972;48.078;11.876;2023-08-07T11:24:14;94903.72;;;18.76;100.00
23589;BME280;11972;48.078;11.876;2023-08-07T11:28:20;95108.31;;;19.24;100.00
23589;BME280;11972;48.078;11.876;2023-08-07T11:32:21;95202.91;;;19.46;100.00
23589;BME280;11972;48.078;11.876;2023-08-07T11:36:22;95033.38;;;19.07;100.00
23589;BME280;11972;48.078;11.876;2023-08-07T11:40:23;94901.03;;;18.76;100.00
23589;BME280;11972;48.078;11.876;2023-08-07T11:44:23;94879.91;;;18.74;100.00
23589;BME280;11972;48.078;11.876;2023-08-07T11:48:25;94953.94;;;18.91;100.00
23589;BME280;11972;48.078;11.876;2023-08-07T11:52:26;94781.16;;;18.51;100.00
23589;BME280;11972;48.078;11.876;2023-08-07T11:56:27;94686.81;;;18.28;100.00
23589;BME280;11972;48.078;11.876;2023-08-07T12:00:28;94605.91;;;18.11;100.00
23589;BME280;11972;48.078;11.876;2023-08-07T12:04:30;94375.63;;;17.55;100.00
23589;BME280;11972;48.078;11.876;2023-08-07T12:08:32;94067.69;;;16.81;100.00
23589;BME280;11972;48.078;11.876;2023-08-07T12:12:35;93994.47;;;16.62;100.00
23589;BME280;11972;48.078;11.876;2023-08-07T12:16:36;94024.97;;;16.71;100.00
23589;BME280;11972;48.078;11.876;2023-08-07T12:20:36;94168.97;;;17.08;100.00
23589;BME280;11972;48.078;11.876;2023-08-07T12:24:36;94362.84;;;17.57;100.00
23589;BME280;11972;48.078;11.876;2023-08-07T12:28:37;94426.00;;;17.73;100.00
23589;BME280;11972;48.078;11.876;2023-08-07T12:32:37;94297.06;;;17.41;100.00
23589;BME280;11972;48.078;11.876;2023-08-07T12:36:38;94213.09;;;17.21;100.00
23589;BME280;11972;48.078;11.876;2023-08-07T12:40:38;94149.75;;;17.06;100.00
23589;BME280;11972;48.078;11.876;2023-08-07T12:44:38;94229.13;;;17.26;100.00
23589;BME280;11972;48.078;11.876;2023-08-07T12:48:39;94309.09;;;17.48;100.00
23589;BME280;11972;48.078;11.876;2023-08-07T12:52:39;94388.03;;;17.66;100.00
23589;BME280;11972;48.078;11.876;2023-08-07T12:56:39;94564.22;;;18.10;100.00
23589;BME280;11972;48.078;11.876;2023-08-07T13:00:40;94721.00;;;18.48;100.00
23589;BME280;11972;48.078;11.876;2023-08-07T13:04:41;94804.69;;;18.71;100.00
23589;BME280;11972;48.078;11.876;2023-08-07T13:08:41;94963.00;;;19.06;100.00
23589;BME280;11972;48.078;11.876;2023-08-07T13:12:44;95062.09;;;19.33;100.00
23589;BME280;11972;48.078;11.876;2023-08-07T13:16:45;94867.22;;;18.87;100.00
23589;BME280;11972;48.078;11.876;2023-08-07T13:20:45;94630.19;;;18.31;100.00
23589;BME280;11972;48.078;11.876;2023-08-07T13:24:45;93985.53;;;16.73;100.00
23589;BME280;11972;48.078;11.876;2023-08-07T13:28:46;93499.72;;;15.54;100.00
23589;BME280;11972;48.078;11.876;2023-08-07T13:32:46;93447.00;;;15.41;100.00
23589;BME280;11972;48.078;11.876;2023-08-07T13:36:46;93817.94;;;16.34;100.00
23589;BME280;11972;48.078;11.876;2023-08-07T13:40:46;94292.34;;;17.53;100.00
23589;BME280;11972;48.078;11.876;2023-08-07T13:44:47;94628.84;;;18.34;100.00
23589;BME280;11972;48.078;11.876;2023-08-07T13:48:47;94748.72;;;18.64;100.00
23589;BME280;11972;48.078;11.876;2023-08-07T13:52:48;94819.00;;;18.81;100.00
23589;BME280;11972;48.078;11.876;2023-08-07T13:56:48;94710.66;;;18.57;100.00
23589;BME280;11972;48.078;11.876;2023-08-07T14:00:50;94328.72;;;17.64;100.00
23589;BME280;11972;48.078;11.876;2023-08-07T14:04:50;94102.84;;;17.10;100.00
23589;BME280;11972;48.078;11.876;2023-08-07T14:08:51;94054.22;;;16.98;100.00
23589;BME280;11972;48.078;11.876;2023-08-07T14:12:51;94030.97;;;16.94;100.00
23589;BME280;11972;48.078;11.876;2023-08-07T14:16:51;94026.72;;;16.93;100.00
23589;BME280;11972;48.078;11.876;2023-08-07T14:20:54;94271.53;;;17.55;100.00
23589;BME280;11972;48.078;11.876;2023-08-07T14:24:54;94577.75;;;18.30;100.00
23589;BME280;11972;48.078;11.876;2023-08-07T14:28:55;94686.59;;;18.57;100.00
23589;BME280;11972;48.078;11.876;2023-08-07T14:32:55;94549.41;;;18.24;100.00
23589;BME280;11972;48.078;11.876;2023-08-07T14:36:55;94435.31;;;17.98;100.00
23589;BME280;11972;48.078;11.876;2023-08-07T14:40:56;94482.44;;;18.09;100.00
23589;BME280;11972;48.078;11.876;2023-08-07T14:44:59;94706.47;;;18.66;100.00
23589;BME280;11972;48.078;11.876;2023-08-07T14:48:59;94835.22;;;18.97;100.00
23589;BME280;11972;48.078;11.876;2023-08-07T14:52:59;94796.84;;;18.86;100.00
23589;BME280;11972;48.078;11.876;2023-08-07T14:57:00;94552.38;;;18.28;100.00
23589;BME280;11972;48.078;11.876;2023-08-07T15:01:00;94239.19;;;17.51;100.00
23589;BME280;11972;48.078;11.876;2023-08-07T15:05:01;94039.56;;;17.01;100.00
23589;BME280;11972;48.078;11.876;2023-08-07T15:09:01;93922.91;;;16.76;100.00
23589;BME280;11972;48.078;11.876;2023-08-07T15:13:01;93840.94;;;16.56;100.00
23589;BME280;11972;48.078;11.876;2023-08-07T15:17:02;93654.53;;;16.08;100.00
23589;BME280;11972;48.078;11.876;2023-08-07T15:21:04;93580.50;;;15.90;100.00
23589;BME280;11972;48.078;11.876;2023-08-07T15:25:05;93542.94;;;15.81;100.00
23589;BME280;11972;48.078;11.876;2023-08-07T15:29:05;93553.06;;;15.84;100.00
23589;BME280;11972;48.078;11.876;2023-08-07T15:33:05;93591.94;;;15.96;100.00
23589;BME280;11972;48.078;11.876;2023-08-07T15:37:06;93694.81;;;16.22;100.00
23589;BME280;11972;48.078;11.876;2023-08-07T15:41:06;93662.31;;;16.15;100.00
23589;BME280;11972;48.078;11.876;2023-08-07T15:45:07;93661.22;;;16.16;100.00
23589;BME280;11972;48.078;11.876;2023-08-07T15:49:07;93628.75;;;16.09;100.00
23589;BME280;11972;48.078;11.876;2023-08-07T15:53:08;93587.69;;;16.00;100.00
23589;BME280;11972;48.078;11.876;2023-08-07T15:57:09;93627.13;;;16.08;100.00
23589;BME280;11972;48.078;11.876;2023-08-07T16:01:09;93666.03;;;16.19;100.00
23589;BME280;11972;48.078;11.876;2023-08-07T16:05:11;93555.22;;;15.93;100.00
23589;BME280;11972;48.078;11.876;2023-08-07T16:09:11;93509.66;;;15.79;100.00
23589;BME280;11972;48.078;11.876;2023-08-07T16:13:11;93419.91;;;15.59;100.00
23589;BME280;11972;48.078;11.876;2023-08-07T16:17:14;93299.41;;;15.28;100.00
23589;BME280;11972;48.078;11.876;2023-08-07T16:21:15;93206.34;;;15.02;100.00
23589;BME280;11972;48.078;11.876;2023-08-07T16:25:15;93106.94;;;14.78;100.00
23589;BME280;11972;48.078;11.876;2023-08-07T16:29:16;93041.84;;;14.60;100.00
23589;BME280;11972;48.078;11.876;2023-08-07T16:33:17;92739.38;;;13.83;100.00
23589;BME280;11972;48.078;11.876;2023-08-07T16:37:17;92554.97;;;13.36;100.00
23589;BME280;11972;48.078;11.876;2023-08-07T16:41:17;92418.88;;;13.02;100.00
23589;BME280;11972;48.078;11.876;2023-08-07T16:45:18;92359.91;;;12.86;100.00
23589;BME280;11972;48.078;11.876;2023-08-07T16:49:19;92339.53;;;12.81;100.00
23589;BME280;11972;48.078;11.876;2023-08-07T16:53:20;92231.97;;;12.51;100.00
23589;BME280;11972;48.078;11.876;2023-08-07T16:57:22;92129.72;;;12.26;100.00
23589;BME280;11972;48.078;11.876;2023-08-07T17:01:22;92121.78;;;12.21;100.00
23589;BME280;11972;48.078;11.876;2023-08-07T17:05:23;92184.66;;;12.39;100.00
23589;BME280;11972;48.078;11.876;2023-08-07T17:09:24;92324.72;;;12.75;100.00
23589;BME280;11972;48.078;11.876;2023-08-07T17:13:25;92389.28;;;12.89;100.00
23589;BME280;11972;48.078;11.876;2023-08-07T17:17:25;92341.94;;;12.78;100.00
23589;BME280;11972;48.078;11.876;2023-08-07T17:21:25;92304.94;;;12.68;100.00
23589;BME280;11972;48.078;11.876;2023-08-07T17:25:26;92331.38;;;12.73;100.00
23589;BME280;11972;48.078;11.876;2023-08-07T17:29:26;92446.44;;;13.01;100.00
23589;BME280;11972;48.078;11.876;2023-08-07T17:33:28;92431.09;;;12.98;100.00
23589;BME280;11972;48.078;11.876;2023-08-07T17:37:28;92427.66;;;12.97;100.00
23589;BME280;11972;48.078;11.876;2023-08-07T17:41:29;92403.06;;;12.86;100.00
23589;BME280;11972;48.078;11.876;2023-08-07T17:45:29;92386.13;;;12.82;100.00
23589;BME280;11972;48.078;11.876;2023-08-07T17:49:30;92393.81;;;12.84;100.00
23589;BME280;11972;48.078;11.876;2023-08-07T17:53:30;92398.84;;;12.85;100.00
23589;BME280;11972;48.078;11.876;2023-08-07T17:57:30;92396.72;;;12.82;100.00
23589;BME280;11972;48.078;11.876;2023-08-07T18:01:31;92355.47;;;12.71;100.00
23589;BME280;11972;48.078;11.876;2023-08-07T18:05:32;92321.09;;;12.61;100.00
23589;BME280;11972;48.078;11.876;2023-08-07T18:09:32;92352.81;;;12.71;100.00
23589;BME280;11972;48.078;11.876;2023-08-07T18:13:33;92361.56;;;12.72;100.00
23589;BME280;11972;48.078;11.876;2023-08-07T18:17:33;92364.75;;;12.69;100.00
23589;BME280;11972;48.078;11.876;2023-08-07T18:21:35;92325.31;;;12.62;100.00
23589;BME280;11972;48.078;11.876;2023-08-07T18:25:35;92268.75;;;12.48;100.00
23589;BME280;11972;48.078;11.876;2023-08-07T18:29:35;92266.66;;;12.45;100.00
23589;BME280;11972;48.078;11.876;2023-08-07T18:33:36;92255.53;;;12.42;100.00
23589;BME280;11972;48.078;11.876;2023-08-07T18:37:37;92253.72;;;12.38;100.00
23589;BME280;11972;48.078;11.876;2023-08-07T18:41:37;92240.75;;;12.36;100.00
23589;BME280;11972;48.078;11.876;2023-08-07T18:45:38;92217.53;;;12.28;100.00
23589;BME280;11972;48.078;11.876;2023-08-07T18:49:38;92182.13;;;12.19;100.00
23589;BME280;11972;48.078;11.876;2023-08-07T18:53:38;92129.84;;;12.06;100.00
23589;BME280;11972;48.078;11.876;2023-08-07T18:57:39;92129.31;;;12.04;100.00
23589;BME280;11972;48.078;11.876;2023-08-07T19:01:40;92094.72;;;11.95;100.00
23589;BME280;11972;48.078;11.876;2023-08-07T19:05:40;92057.75;;;11.85;100.00
23589;BME280;11972;48.078;11.876;2023-08-07T19:09:41;92024.22;;;11.75;100.00
23589;BME280;11972;48.078;11.876;2023-08-07T19:13:42;91987.28;;;11.65;100.00
23589;BME280;11972;48.078;11.876;2023-08-07T19:17:42;91984.09;;;11.63;100.00
23589;BME280;11972;48.078;11.876;2023-08-07T19:21:42;91988.31;;;11.64;100.00
23589;BME280;11972;48.078;11.876;2023-08-07T19:25:43;91956.16;;;11.57;100.00
23589;BME280;11972;48.078;11.876;2023-08-07T19:29:43;91936.09;;;11.51;100.00
23589;BME280;11972;48.078;11.876;2023-08-07T19:33:43;91925.56;;;11.46;100.00
23589;BME280;11972;48.078;11.876;2023-08-07T19:37:44;91928.22;;;11.46;100.00
23589;BME280;11972;48.078;11.876;2023-08-07T19:41:44;91917.09;;;11.43;100.00
23589;BME280;11972;48.078;11.876;2023-08-07T19:45:44;91932.41;;;11.47;100.00
23589;BME280;11972;48.078;11.876;2023-08-07T19:49:45;91911.63;;;11.40;100.00
23589;BME280;11972;48.078;11.876;2023-08-07T19:53:48;91905.50;;;11.39;100.00
23589;BME280;11972;48.078;11.876;2023-08-07T19:57:48;91913.97;;;11.41;100.00
23589;BME280;11972;48.078;11.876;2023-08-07T20:01:49;91927.69;;;11.43;100.00
23589;BME280;11972;48.078;11.876;2023-08-07T20:05:49;91918.19;;;11.42;100.00
23589;BME280;11972;48.078;11.876;2023-08-07T20:09:49;91922.41;;;11.43;100.00
23589;BME280;11972;48.078;11.876;2023-08-07T20:13:50;91946.94;;;11.49;100.00
23589;BME280;11972;48.078;11.876;2023-08-07T20:17:51;92030.59;;;11.69;100.00
23589;BME280;11972;48.078;11.876;2023-08-07T20:21:51;92107.19;;;11.89;100.00
23589;BME280;11972;48.078;11.876;2023-08-07T20:25:52;92148.34;;;12.01;100.00
23589;BME280;11972;48.078;11.876;2023-08-07T20:29:53;92171.88;;;12.07;100.00
23589;BME280;11972;48.078;11.876;2023-08-07T20:33:53;92155.50;;;12.00;100.00
23589;BME280;11972;48.078;11.876;2023-08-07T20:37:58;92098.72;;;11.87;100.00
23589;BME280;11972;48.078;11.876;2023-08-07T20:41:58;92050.13;;;11.73;100.00
23589;BME280;11972;48.078;11.876;2023-08-07T20:45:58;92003.44;;;11.58;100.00
23589;BME280;11972;48.078;11.876;2023-08-07T20:49:59;91938.25;;;11.43;100.00
23589;BME280;11972;48.078;11.876;2023-08-07T20:54:01;91889.75;;;11.29;100.00
23589;BME280;11972;48.078;11.876;2023-08-07T20:58:01;91856.00;;;11.21;100.00